<?xml version="1.0" encoding="UTF-8" standalone="no" ?>
<gpx xmlns="http://www.topografix.com/GPX/1/1" xmlns:xsi="http://www.w3.org/2001/XMLSchema-instance" xsi:schemaLocation="http://www.topografix.com/GPX/1/1 http://www.topografix.com/GPX/1/1/gpx.xsd" version="1.1" creator="VisuGPX - https://www.visugpx.com">
  <metadata>
    <name>Tour du Linleu ; boucle  depuis la Chapelle d'Abondance</name>
    <desc><![CDATA[Tour du Linleu ; boucle  depuis la Chapelle d'Abondance]]></desc>
  </metadata>
  <trk>
    <name><![CDATA[Tour du Linleu ; boucle  depuis la Chapelle d'Abondance]]></name>
    <trkseg>
      <trkpt lat="46.29791" lon="6.80291">
        <ele>1288.3</ele>
        <time>2021-01-19T08:18:40Z</time>
      </trkpt>
      <trkpt lat="46.29786" lon="6.80293">
        <ele>1283.02</ele>
        <time>2021-01-19T08:19:36Z</time>
      </trkpt>
      <trkpt lat="46.2979" lon="6.803">
        <ele>1283.98</ele>
        <time>2021-01-19T08:20:09Z</time>
      </trkpt>
      <trkpt lat="46.29779" lon="6.80322">
        <ele>1286.38</ele>
        <time>2021-01-19T08:20:46Z</time>
      </trkpt>
      <trkpt lat="46.29779" lon="6.80336">
        <ele>1288.3</ele>
        <time>2021-01-19T08:21:02Z</time>
      </trkpt>
      <trkpt lat="46.29754" lon="6.80413">
        <ele>1294.55</ele>
        <time>2021-01-19T08:22:02Z</time>
      </trkpt>
      <trkpt lat="46.29754" lon="6.80433">
        <ele>1295.51</ele>
        <time>2021-01-19T08:22:22Z</time>
      </trkpt>
      <trkpt lat="46.29727" lon="6.80516">
        <ele>1303.2</ele>
        <time>2021-01-19T08:23:23Z</time>
      </trkpt>
      <trkpt lat="46.29703" lon="6.80618">
        <ele>1311.38</ele>
        <time>2021-01-19T08:25:11Z</time>
      </trkpt>
      <trkpt lat="46.29708" lon="6.80616">
        <ele>1309.93</ele>
        <time>2021-01-19T08:25:38Z</time>
      </trkpt>
      <trkpt lat="46.29705" lon="6.80614">
        <ele>1308.97</ele>
        <time>2021-01-19T08:26:02Z</time>
      </trkpt>
      <trkpt lat="46.29685" lon="6.80653">
        <ele>1312.82</ele>
        <time>2021-01-19T08:26:30Z</time>
      </trkpt>
      <trkpt lat="46.29672" lon="6.80713">
        <ele>1316.18</ele>
        <time>2021-01-19T08:27:09Z</time>
      </trkpt>
      <trkpt lat="46.29648" lon="6.80769">
        <ele>1320.51</ele>
        <time>2021-01-19T08:27:50Z</time>
      </trkpt>
      <trkpt lat="46.2964" lon="6.80806">
        <ele>1322.43</ele>
        <time>2021-01-19T08:28:15Z</time>
      </trkpt>
      <trkpt lat="46.29644" lon="6.8083">
        <ele>1323.87</ele>
        <time>2021-01-19T08:28:29Z</time>
      </trkpt>
      <trkpt lat="46.29725" lon="6.80947">
        <ele>1337.81</ele>
        <time>2021-01-19T08:30:27Z</time>
      </trkpt>
      <trkpt lat="46.29735" lon="6.80972">
        <ele>1340.7</ele>
        <time>2021-01-19T08:30:50Z</time>
      </trkpt>
      <trkpt lat="46.29741" lon="6.81019">
        <ele>1344.54</ele>
        <time>2021-01-19T08:31:38Z</time>
      </trkpt>
      <trkpt lat="46.29759" lon="6.81056">
        <ele>1347.91</ele>
        <time>2021-01-19T08:32:18Z</time>
      </trkpt>
      <trkpt lat="46.29774" lon="6.81064">
        <ele>1351.27</ele>
        <time>2021-01-19T08:32:41Z</time>
      </trkpt>
      <trkpt lat="46.2979" lon="6.81059">
        <ele>1356.08</ele>
        <time>2021-01-19T08:33:16Z</time>
      </trkpt>
      <trkpt lat="46.29806" lon="6.81008">
        <ele>1366.65</ele>
        <time>2021-01-19T08:34:44Z</time>
      </trkpt>
      <trkpt lat="46.29857" lon="6.8108">
        <ele>1388.76</ele>
        <time>2021-01-19T08:37:01Z</time>
      </trkpt>
      <trkpt lat="46.29889" lon="6.81112">
        <ele>1399.82</ele>
        <time>2021-01-19T08:38:14Z</time>
      </trkpt>
      <trkpt lat="46.29904" lon="6.81121">
        <ele>1406.07</ele>
        <time>2021-01-19T08:38:57Z</time>
      </trkpt>
      <trkpt lat="46.29926" lon="6.81121">
        <ele>1408.95</ele>
        <time>2021-01-19T08:42:34Z</time>
      </trkpt>
      <trkpt lat="46.29953" lon="6.81157">
        <ele>1418.08</ele>
        <time>2021-01-19T08:43:42Z</time>
      </trkpt>
      <trkpt lat="46.29987" lon="6.81178">
        <ele>1425.77</ele>
        <time>2021-01-19T08:44:39Z</time>
      </trkpt>
      <trkpt lat="46.29997" lon="6.81209">
        <ele>1432.98</ele>
        <time>2021-01-19T08:45:24Z</time>
      </trkpt>
      <trkpt lat="46.3001" lon="6.81225">
        <ele>1438.75</ele>
        <time>2021-01-19T08:45:56Z</time>
      </trkpt>
      <trkpt lat="46.30019" lon="6.81228">
        <ele>1441.15</ele>
        <time>2021-01-19T08:46:12Z</time>
      </trkpt>
      <trkpt lat="46.30049" lon="6.8127">
        <ele>1449.81</ele>
        <time>2021-01-19T08:47:15Z</time>
      </trkpt>
      <trkpt lat="46.30106" lon="6.81273">
        <ele>1463.26</ele>
        <time>2021-01-19T08:48:35Z</time>
      </trkpt>
      <trkpt lat="46.30139" lon="6.81302">
        <ele>1462.78</ele>
        <time>2021-01-19T08:49:22Z</time>
      </trkpt>
      <trkpt lat="46.30183" lon="6.81375">
        <ele>1473.84</ele>
        <time>2021-01-19T08:51:08Z</time>
      </trkpt>
      <trkpt lat="46.30216" lon="6.81365">
        <ele>1482.01</ele>
        <time>2021-01-19T08:52:08Z</time>
      </trkpt>
      <trkpt lat="46.30234" lon="6.81335">
        <ele>1491.14</ele>
        <time>2021-01-19T08:53:15Z</time>
      </trkpt>
      <trkpt lat="46.30256" lon="6.81333">
        <ele>1494.51</ele>
        <time>2021-01-19T08:53:48Z</time>
      </trkpt>
      <trkpt lat="46.30294" lon="6.81389">
        <ele>1501.24</ele>
        <time>2021-01-19T08:54:55Z</time>
      </trkpt>
      <trkpt lat="46.30353" lon="6.81436">
        <ele>1507</ele>
        <time>2021-01-19T08:56:10Z</time>
      </trkpt>
      <trkpt lat="46.30368" lon="6.81471">
        <ele>1510.85</ele>
        <time>2021-01-19T08:56:48Z</time>
      </trkpt>
      <trkpt lat="46.30395" lon="6.81608">
        <ele>1525.75</ele>
        <time>2021-01-19T08:59:08Z</time>
      </trkpt>
      <trkpt lat="46.30403" lon="6.81623">
        <ele>1528.63</ele>
        <time>2021-01-19T09:00:00Z</time>
      </trkpt>
      <trkpt lat="46.30439" lon="6.8166">
        <ele>1540.17</ele>
        <time>2021-01-19T09:01:14Z</time>
      </trkpt>
      <trkpt lat="46.30452" lon="6.81678">
        <ele>1545.46</ele>
        <time>2021-01-19T09:01:45Z</time>
      </trkpt>
      <trkpt lat="46.30454" lon="6.81691">
        <ele>1546.9</ele>
        <time>2021-01-19T09:02:00Z</time>
      </trkpt>
      <trkpt lat="46.3047" lon="6.81703">
        <ele>1552.19</ele>
        <time>2021-01-19T09:02:33Z</time>
      </trkpt>
      <trkpt lat="46.30486" lon="6.81762">
        <ele>1564.2</ele>
        <time>2021-01-19T09:03:55Z</time>
      </trkpt>
      <trkpt lat="46.30498" lon="6.8176">
        <ele>1567.57</ele>
        <time>2021-01-19T09:04:16Z</time>
      </trkpt>
      <trkpt lat="46.30571" lon="6.81842">
        <ele>1591.12</ele>
        <time>2021-01-19T09:07:04Z</time>
      </trkpt>
      <trkpt lat="46.3062" lon="6.81957">
        <ele>1600.73</ele>
        <time>2021-01-19T09:09:00Z</time>
      </trkpt>
      <trkpt lat="46.30636" lon="6.8198">
        <ele>1603.14</ele>
        <time>2021-01-19T09:09:27Z</time>
      </trkpt>
      <trkpt lat="46.30646" lon="6.82023">
        <ele>1606.02</ele>
        <time>2021-01-19T09:10:29Z</time>
      </trkpt>
      <trkpt lat="46.30646" lon="6.82014">
        <ele>1606.02</ele>
        <time>2021-01-19T09:10:48Z</time>
      </trkpt>
      <trkpt lat="46.30677" lon="6.82095">
        <ele>1613.23</ele>
        <time>2021-01-19T09:12:11Z</time>
      </trkpt>
      <trkpt lat="46.30702" lon="6.82127">
        <ele>1621.88</ele>
        <time>2021-01-19T09:13:22Z</time>
      </trkpt>
      <trkpt lat="46.30714" lon="6.82131">
        <ele>1625.73</ele>
        <time>2021-01-19T09:13:49Z</time>
      </trkpt>
      <trkpt lat="46.30717" lon="6.82141">
        <ele>1628.61</ele>
        <time>2021-01-19T09:14:05Z</time>
      </trkpt>
      <trkpt lat="46.30757" lon="6.82165">
        <ele>1644.95</ele>
        <time>2021-01-19T09:16:45Z</time>
      </trkpt>
      <trkpt lat="46.30792" lon="6.82197">
        <ele>1663.22</ele>
        <time>2021-01-19T09:19:01Z</time>
      </trkpt>
      <trkpt lat="46.30815" lon="6.8221">
        <ele>1673.31</ele>
        <time>2021-01-19T09:20:02Z</time>
      </trkpt>
      <trkpt lat="46.3088" lon="6.82228">
        <ele>1694.94</ele>
        <time>2021-01-19T09:22:27Z</time>
      </trkpt>
      <trkpt lat="46.30909" lon="6.82217">
        <ele>1702.63</ele>
        <time>2021-01-19T09:23:35Z</time>
      </trkpt>
      <trkpt lat="46.30918" lon="6.82226">
        <ele>1705.52</ele>
        <time>2021-01-19T09:24:03Z</time>
      </trkpt>
      <trkpt lat="46.30967" lon="6.82221">
        <ele>1720.42</ele>
        <time>2021-01-19T09:26:29Z</time>
      </trkpt>
      <trkpt lat="46.30961" lon="6.82226">
        <ele>1720.42</ele>
        <time>2021-01-19T09:26:57Z</time>
      </trkpt>
      <trkpt lat="46.30978" lon="6.82217">
        <ele>1723.78</ele>
        <time>2021-01-19T09:27:24Z</time>
      </trkpt>
      <trkpt lat="46.30999" lon="6.82222">
        <ele>1727.63</ele>
        <time>2021-01-19T09:27:53Z</time>
      </trkpt>
      <trkpt lat="46.31026" lon="6.82189">
        <ele>1734.36</ele>
        <time>2021-01-19T09:28:55Z</time>
      </trkpt>
      <trkpt lat="46.31057" lon="6.8217">
        <ele>1744.45</ele>
        <time>2021-01-19T09:30:29Z</time>
      </trkpt>
      <trkpt lat="46.31116" lon="6.82159">
        <ele>1756.95</ele>
        <time>2021-01-19T09:32:10Z</time>
      </trkpt>
      <trkpt lat="46.31128" lon="6.82186">
        <ele>1763.68</ele>
        <time>2021-01-19T09:33:19Z</time>
      </trkpt>
      <trkpt lat="46.31131" lon="6.82261">
        <ele>1779.54</ele>
        <time>2021-01-19T09:35:31Z</time>
      </trkpt>
      <trkpt lat="46.31164" lon="6.82211">
        <ele>1788.67</ele>
        <time>2021-01-19T09:37:35Z</time>
      </trkpt>
      <trkpt lat="46.31194" lon="6.82131">
        <ele>1804.53</ele>
        <time>2021-01-19T09:39:37Z</time>
      </trkpt>
      <trkpt lat="46.31206" lon="6.82082">
        <ele>1815.59</ele>
        <time>2021-01-19T09:41:06Z</time>
      </trkpt>
      <trkpt lat="46.31217" lon="6.82061">
        <ele>1820.39</ele>
        <time>2021-01-19T09:41:38Z</time>
      </trkpt>
      <trkpt lat="46.3123" lon="6.82052">
        <ele>1824.24</ele>
        <time>2021-01-19T09:42:06Z</time>
      </trkpt>
      <trkpt lat="46.31239" lon="6.82055">
        <ele>1827.6</ele>
        <time>2021-01-19T09:42:23Z</time>
      </trkpt>
      <trkpt lat="46.31247" lon="6.82108">
        <ele>1836.74</ele>
        <time>2021-01-19T09:44:05Z</time>
      </trkpt>
      <trkpt lat="46.31262" lon="6.82154">
        <ele>1849.23</ele>
        <time>2021-01-19T09:45:31Z</time>
      </trkpt>
      <trkpt lat="46.31296" lon="6.82144">
        <ele>1863.65</ele>
        <time>2021-01-19T09:47:07Z</time>
      </trkpt>
      <trkpt lat="46.31335" lon="6.82172">
        <ele>1861.73</ele>
        <time>2021-01-19T09:48:19Z</time>
      </trkpt>
      <trkpt lat="46.31383" lon="6.82191">
        <ele>1844.43</ele>
        <time>2021-01-19T09:48:41Z</time>
      </trkpt>
      <trkpt lat="46.31395" lon="6.8221">
        <ele>1833.85</ele>
        <time>2021-01-19T09:49:52Z</time>
      </trkpt>
      <trkpt lat="46.31423" lon="6.82226">
        <ele>1831.45</ele>
        <time>2021-01-19T09:50:55Z</time>
      </trkpt>
      <trkpt lat="46.31421" lon="6.82232">
        <ele>1830.97</ele>
        <time>2021-01-19T09:51:49Z</time>
      </trkpt>
      <trkpt lat="46.31426" lon="6.82231">
        <ele>1830.97</ele>
        <time>2021-01-19T09:52:43Z</time>
      </trkpt>
      <trkpt lat="46.31422" lon="6.82235">
        <ele>1829.53</ele>
        <time>2021-01-19T09:57:25Z</time>
      </trkpt>
      <trkpt lat="46.31423" lon="6.8223">
        <ele>1829.05</ele>
        <time>2021-01-19T09:57:54Z</time>
      </trkpt>
      <trkpt lat="46.31437" lon="6.82257">
        <ele>1824.24</ele>
        <time>2021-01-19T10:00:22Z</time>
      </trkpt>
      <trkpt lat="46.31435" lon="6.82262">
        <ele>1819.43</ele>
        <time>2021-01-19T10:00:25Z</time>
      </trkpt>
      <trkpt lat="46.31409" lon="6.82255">
        <ele>1815.59</ele>
        <time>2021-01-19T10:00:34Z</time>
      </trkpt>
      <trkpt lat="46.31431" lon="6.82294">
        <ele>1811.26</ele>
        <time>2021-01-19T10:00:44Z</time>
      </trkpt>
      <trkpt lat="46.31429" lon="6.82299">
        <ele>1808.86</ele>
        <time>2021-01-19T10:00:47Z</time>
      </trkpt>
      <trkpt lat="46.31401" lon="6.82294">
        <ele>1803.57</ele>
        <time>2021-01-19T10:00:56Z</time>
      </trkpt>
      <trkpt lat="46.31401" lon="6.82304">
        <ele>1799.73</ele>
        <time>2021-01-19T10:00:59Z</time>
      </trkpt>
      <trkpt lat="46.31427" lon="6.8233">
        <ele>1795.4</ele>
        <time>2021-01-19T10:01:12Z</time>
      </trkpt>
      <trkpt lat="46.31446" lon="6.82373">
        <ele>1793</ele>
        <time>2021-01-19T10:01:31Z</time>
      </trkpt>
      <trkpt lat="46.31443" lon="6.82378">
        <ele>1786.75</ele>
        <time>2021-01-19T10:01:34Z</time>
      </trkpt>
      <trkpt lat="46.31433" lon="6.82374">
        <ele>1785.31</ele>
        <time>2021-01-19T10:01:39Z</time>
      </trkpt>
      <trkpt lat="46.3144" lon="6.82403">
        <ele>1780.98</ele>
        <time>2021-01-19T10:01:48Z</time>
      </trkpt>
      <trkpt lat="46.31434" lon="6.82404">
        <ele>1775.69</ele>
        <time>2021-01-19T10:01:52Z</time>
      </trkpt>
      <trkpt lat="46.31434" lon="6.82429">
        <ele>1768.96</ele>
        <time>2021-01-19T10:02:01Z</time>
      </trkpt>
      <trkpt lat="46.31429" lon="6.82425">
        <ele>1769.44</ele>
        <time>2021-01-19T10:03:21Z</time>
      </trkpt>
      <trkpt lat="46.31441" lon="6.82452">
        <ele>1765.6</ele>
        <time>2021-01-19T10:03:48Z</time>
      </trkpt>
      <trkpt lat="46.31435" lon="6.82459">
        <ele>1760.31</ele>
        <time>2021-01-19T10:03:53Z</time>
      </trkpt>
      <trkpt lat="46.31422" lon="6.82452">
        <ele>1755.5</ele>
        <time>2021-01-19T10:03:58Z</time>
      </trkpt>
      <trkpt lat="46.31476" lon="6.82553">
        <ele>1739.64</ele>
        <time>2021-01-19T10:04:25Z</time>
      </trkpt>
      <trkpt lat="46.31472" lon="6.82565">
        <ele>1734.36</ele>
        <time>2021-01-19T10:04:32Z</time>
      </trkpt>
      <trkpt lat="46.31492" lon="6.82622">
        <ele>1723.78</ele>
        <time>2021-01-19T10:04:50Z</time>
      </trkpt>
      <trkpt lat="46.31536" lon="6.82682">
        <ele>1713.21</ele>
        <time>2021-01-19T10:05:17Z</time>
      </trkpt>
      <trkpt lat="46.31531" lon="6.82696">
        <ele>1706.96</ele>
        <time>2021-01-19T10:05:22Z</time>
      </trkpt>
      <trkpt lat="46.31578" lon="6.82764">
        <ele>1693.02</ele>
        <time>2021-01-19T10:05:45Z</time>
      </trkpt>
      <trkpt lat="46.31575" lon="6.82773">
        <ele>1689.65</ele>
        <time>2021-01-19T10:05:49Z</time>
      </trkpt>
      <trkpt lat="46.3158" lon="6.82804">
        <ele>1684.37</ele>
        <time>2021-01-19T10:05:55Z</time>
      </trkpt>
      <trkpt lat="46.31597" lon="6.82837">
        <ele>1680.52</ele>
        <time>2021-01-19T10:06:19Z</time>
      </trkpt>
      <trkpt lat="46.31585" lon="6.82852">
        <ele>1675.72</ele>
        <time>2021-01-19T10:06:24Z</time>
      </trkpt>
      <trkpt lat="46.31588" lon="6.82866">
        <ele>1672.35</ele>
        <time>2021-01-19T10:06:27Z</time>
      </trkpt>
      <trkpt lat="46.31583" lon="6.82882">
        <ele>1667.06</ele>
        <time>2021-01-19T10:06:33Z</time>
      </trkpt>
      <trkpt lat="46.31599" lon="6.82887">
        <ele>1660.33</ele>
        <time>2021-01-19T10:06:38Z</time>
      </trkpt>
      <trkpt lat="46.31615" lon="6.82919">
        <ele>1654.09</ele>
        <time>2021-01-19T10:06:44Z</time>
      </trkpt>
      <trkpt lat="46.31638" lon="6.83088">
        <ele>1646.88</ele>
        <time>2021-01-19T10:09:32Z</time>
      </trkpt>
      <trkpt lat="46.31631" lon="6.83158">
        <ele>1633.9</ele>
        <time>2021-01-19T10:09:41Z</time>
      </trkpt>
      <trkpt lat="46.31636" lon="6.83197">
        <ele>1629.09</ele>
        <time>2021-01-19T10:09:45Z</time>
      </trkpt>
      <trkpt lat="46.31623" lon="6.83377">
        <ele>1609.86</ele>
        <time>2021-01-19T10:10:07Z</time>
      </trkpt>
      <trkpt lat="46.31608" lon="6.83419">
        <ele>1602.66</ele>
        <time>2021-01-19T10:10:14Z</time>
      </trkpt>
      <trkpt lat="46.31605" lon="6.83402">
        <ele>1604.1</ele>
        <time>2021-01-19T10:10:24Z</time>
      </trkpt>
      <trkpt lat="46.31605" lon="6.83397">
        <ele>1602.17</ele>
        <time>2021-01-19T10:10:36Z</time>
      </trkpt>
      <trkpt lat="46.31611" lon="6.83406">
        <ele>1598.81</ele>
        <time>2021-01-19T10:10:50Z</time>
      </trkpt>
      <trkpt lat="46.31612" lon="6.83423">
        <ele>1600.25</ele>
        <time>2021-01-19T10:11:14Z</time>
      </trkpt>
      <trkpt lat="46.31627" lon="6.8344">
        <ele>1596.89</ele>
        <time>2021-01-19T10:11:24Z</time>
      </trkpt>
      <trkpt lat="46.31663" lon="6.83455">
        <ele>1595.93</ele>
        <time>2021-01-19T10:12:05Z</time>
      </trkpt>
      <trkpt lat="46.31674" lon="6.83507">
        <ele>1588.24</ele>
        <time>2021-01-19T10:12:26Z</time>
      </trkpt>
      <trkpt lat="46.3167" lon="6.83534">
        <ele>1582.95</ele>
        <time>2021-01-19T10:12:29Z</time>
      </trkpt>
      <trkpt lat="46.31643" lon="6.8361">
        <ele>1578.14</ele>
        <time>2021-01-19T10:12:43Z</time>
      </trkpt>
      <trkpt lat="46.31636" lon="6.8369">
        <ele>1568.05</ele>
        <time>2021-01-19T10:13:09Z</time>
      </trkpt>
      <trkpt lat="46.31623" lon="6.83699">
        <ele>1562.28</ele>
        <time>2021-01-19T10:13:12Z</time>
      </trkpt>
      <trkpt lat="46.31627" lon="6.83742">
        <ele>1558.43</ele>
        <time>2021-01-19T10:13:19Z</time>
      </trkpt>
      <trkpt lat="46.31617" lon="6.83763">
        <ele>1550.74</ele>
        <time>2021-01-19T10:13:23Z</time>
      </trkpt>
      <trkpt lat="46.31629" lon="6.83803">
        <ele>1546.9</ele>
        <time>2021-01-19T10:13:37Z</time>
      </trkpt>
      <trkpt lat="46.3163" lon="6.83796">
        <ele>1547.86</ele>
        <time>2021-01-19T10:15:23Z</time>
      </trkpt>
      <trkpt lat="46.31631" lon="6.83826">
        <ele>1543.05</ele>
        <time>2021-01-19T10:17:39Z</time>
      </trkpt>
      <trkpt lat="46.31624" lon="6.83857">
        <ele>1536.32</ele>
        <time>2021-01-19T10:17:45Z</time>
      </trkpt>
      <trkpt lat="46.31628" lon="6.83879">
        <ele>1532.48</ele>
        <time>2021-01-19T10:17:49Z</time>
      </trkpt>
      <trkpt lat="46.31618" lon="6.8389">
        <ele>1529.11</ele>
        <time>2021-01-19T10:17:52Z</time>
      </trkpt>
      <trkpt lat="46.31595" lon="6.83893">
        <ele>1525.27</ele>
        <time>2021-01-19T10:17:57Z</time>
      </trkpt>
      <trkpt lat="46.31585" lon="6.83942">
        <ele>1520.46</ele>
        <time>2021-01-19T10:18:04Z</time>
      </trkpt>
      <trkpt lat="46.31566" lon="6.8393">
        <ele>1516.14</ele>
        <time>2021-01-19T10:18:22Z</time>
      </trkpt>
      <trkpt lat="46.31552" lon="6.83939">
        <ele>1514.21</ele>
        <time>2021-01-19T10:18:37Z</time>
      </trkpt>
      <trkpt lat="46.3155" lon="6.83932">
        <ele>1513.73</ele>
        <time>2021-01-19T10:19:03Z</time>
      </trkpt>
      <trkpt lat="46.31526" lon="6.83961">
        <ele>1507.48</ele>
        <time>2021-01-19T10:19:37Z</time>
      </trkpt>
      <trkpt lat="46.31493" lon="6.84031">
        <ele>1499.79</ele>
        <time>2021-01-19T10:20:17Z</time>
      </trkpt>
      <trkpt lat="46.31488" lon="6.84102">
        <ele>1487.78</ele>
        <time>2021-01-19T10:20:39Z</time>
      </trkpt>
      <trkpt lat="46.31484" lon="6.84115">
        <ele>1484.41</ele>
        <time>2021-01-19T10:20:43Z</time>
      </trkpt>
      <trkpt lat="46.3147" lon="6.84126">
        <ele>1480.09</ele>
        <time>2021-01-19T10:20:49Z</time>
      </trkpt>
      <trkpt lat="46.31464" lon="6.84151">
        <ele>1477.2</ele>
        <time>2021-01-19T10:21:53Z</time>
      </trkpt>
      <trkpt lat="46.31481" lon="6.84177">
        <ele>1468.55</ele>
        <time>2021-01-19T10:22:22Z</time>
      </trkpt>
      <trkpt lat="46.315" lon="6.84187">
        <ele>1463.26</ele>
        <time>2021-01-19T10:22:29Z</time>
      </trkpt>
      <trkpt lat="46.31537" lon="6.84228">
        <ele>1450.29</ele>
        <time>2021-01-19T10:22:42Z</time>
      </trkpt>
      <trkpt lat="46.31538" lon="6.84286">
        <ele>1433.46</ele>
        <time>2021-01-19T10:23:03Z</time>
      </trkpt>
      <trkpt lat="46.31443" lon="6.84336">
        <ele>1410.87</ele>
        <time>2021-01-19T10:24:02Z</time>
      </trkpt>
      <trkpt lat="46.31486" lon="6.84359">
        <ele>1401.74</ele>
        <time>2021-01-19T10:24:36Z</time>
      </trkpt>
      <trkpt lat="46.31483" lon="6.84367">
        <ele>1398.37</ele>
        <time>2021-01-19T10:24:54Z</time>
      </trkpt>
      <trkpt lat="46.31462" lon="6.84377">
        <ele>1393.09</ele>
        <time>2021-01-19T10:25:36Z</time>
      </trkpt>
      <trkpt lat="46.31488" lon="6.84402">
        <ele>1383.96</ele>
        <time>2021-01-19T10:26:30Z</time>
      </trkpt>
      <trkpt lat="46.31462" lon="6.84425">
        <ele>1374.82</ele>
        <time>2021-01-19T10:27:21Z</time>
      </trkpt>
      <trkpt lat="46.31466" lon="6.84434">
        <ele>1372.9</ele>
        <time>2021-01-19T10:27:39Z</time>
      </trkpt>
      <trkpt lat="46.31462" lon="6.8444">
        <ele>1372.42</ele>
        <time>2021-01-19T10:28:10Z</time>
      </trkpt>
      <trkpt lat="46.31428" lon="6.84457">
        <ele>1367.13</ele>
        <time>2021-01-19T10:28:28Z</time>
      </trkpt>
      <trkpt lat="46.31433" lon="6.84485">
        <ele>1360.4</ele>
        <time>2021-01-19T10:28:35Z</time>
      </trkpt>
      <trkpt lat="46.31409" lon="6.84491">
        <ele>1353.19</ele>
        <time>2021-01-19T10:29:02Z</time>
      </trkpt>
      <trkpt lat="46.31416" lon="6.84502">
        <ele>1347.91</ele>
        <time>2021-01-19T10:29:16Z</time>
      </trkpt>
      <trkpt lat="46.31412" lon="6.84505">
        <ele>1345.5</ele>
        <time>2021-01-19T10:29:19Z</time>
      </trkpt>
      <trkpt lat="46.31411" lon="6.84517">
        <ele>1340.7</ele>
        <time>2021-01-19T10:29:46Z</time>
      </trkpt>
      <trkpt lat="46.31391" lon="6.84521">
        <ele>1329.64</ele>
        <time>2021-01-19T10:30:14Z</time>
      </trkpt>
      <trkpt lat="46.31389" lon="6.8453">
        <ele>1331.56</ele>
        <time>2021-01-19T10:30:39Z</time>
      </trkpt>
      <trkpt lat="46.31385" lon="6.84529">
        <ele>1332.04</ele>
        <time>2021-01-19T10:31:42Z</time>
      </trkpt>
      <trkpt lat="46.31389" lon="6.84535">
        <ele>1332.04</ele>
        <time>2021-01-19T10:32:48Z</time>
      </trkpt>
      <trkpt lat="46.31396" lon="6.8452">
        <ele>1332.04</ele>
        <time>2021-01-19T10:33:20Z</time>
      </trkpt>
      <trkpt lat="46.31393" lon="6.84523">
        <ele>1332.04</ele>
        <time>2021-01-19T10:33:48Z</time>
      </trkpt>
      <trkpt lat="46.31398" lon="6.84524">
        <ele>1332.04</ele>
        <time>2021-01-19T10:34:15Z</time>
      </trkpt>
      <trkpt lat="46.3139" lon="6.84521">
        <ele>1332.52</ele>
        <time>2021-01-19T10:35:22Z</time>
      </trkpt>
      <trkpt lat="46.31393" lon="6.84529">
        <ele>1333.01</ele>
        <time>2021-01-19T10:35:52Z</time>
      </trkpt>
      <trkpt lat="46.3139" lon="6.84534">
        <ele>1333.01</ele>
        <time>2021-01-19T10:36:29Z</time>
      </trkpt>
      <trkpt lat="46.31395" lon="6.84535">
        <ele>1333.01</ele>
        <time>2021-01-19T10:37:08Z</time>
      </trkpt>
      <trkpt lat="46.31389" lon="6.84527">
        <ele>1333.01</ele>
        <time>2021-01-19T10:37:58Z</time>
      </trkpt>
      <trkpt lat="46.31388" lon="6.84538">
        <ele>1333.01</ele>
        <time>2021-01-19T10:39:51Z</time>
      </trkpt>
      <trkpt lat="46.31394" lon="6.84519">
        <ele>1331.56</ele>
        <time>2021-01-19T10:41:08Z</time>
      </trkpt>
      <trkpt lat="46.31386" lon="6.84525">
        <ele>1331.08</ele>
        <time>2021-01-19T10:42:56Z</time>
      </trkpt>
      <trkpt lat="46.31396" lon="6.84529">
        <ele>1332.52</ele>
        <time>2021-01-19T10:44:08Z</time>
      </trkpt>
      <trkpt lat="46.3139" lon="6.84536">
        <ele>1332.52</ele>
        <time>2021-01-19T10:44:24Z</time>
      </trkpt>
      <trkpt lat="46.31392" lon="6.8453">
        <ele>1333.01</ele>
        <time>2021-01-19T10:44:42Z</time>
      </trkpt>
      <trkpt lat="46.31442" lon="6.84539">
        <ele>1339.25</ele>
        <time>2021-01-19T10:45:50Z</time>
      </trkpt>
      <trkpt lat="46.31468" lon="6.84506">
        <ele>1343.1</ele>
        <time>2021-01-19T10:46:31Z</time>
      </trkpt>
      <trkpt lat="46.31507" lon="6.84477">
        <ele>1346.94</ele>
        <time>2021-01-19T10:47:18Z</time>
      </trkpt>
      <trkpt lat="46.31541" lon="6.8449">
        <ele>1350.31</ele>
        <time>2021-01-19T10:48:08Z</time>
      </trkpt>
      <trkpt lat="46.31647" lon="6.84451">
        <ele>1362.33</ele>
        <time>2021-01-19T10:50:57Z</time>
      </trkpt>
      <trkpt lat="46.31691" lon="6.84458">
        <ele>1367.61</ele>
        <time>2021-01-19T10:52:15Z</time>
      </trkpt>
      <trkpt lat="46.31724" lon="6.84453">
        <ele>1370.98</ele>
        <time>2021-01-19T10:53:07Z</time>
      </trkpt>
      <trkpt lat="46.31756" lon="6.84465">
        <ele>1374.34</ele>
        <time>2021-01-19T10:53:57Z</time>
      </trkpt>
      <trkpt lat="46.31798" lon="6.84458">
        <ele>1379.15</ele>
        <time>2021-01-19T10:55:15Z</time>
      </trkpt>
      <trkpt lat="46.31857" lon="6.84465">
        <ele>1387.8</ele>
        <time>2021-01-19T10:57:19Z</time>
      </trkpt>
      <trkpt lat="46.31892" lon="6.8449">
        <ele>1395.01</ele>
        <time>2021-01-19T10:58:45Z</time>
      </trkpt>
      <trkpt lat="46.31919" lon="6.84536">
        <ele>1403.18</ele>
        <time>2021-01-19T11:00:59Z</time>
      </trkpt>
      <trkpt lat="46.31967" lon="6.84596">
        <ele>1415.68</ele>
        <time>2021-01-19T11:03:17Z</time>
      </trkpt>
      <trkpt lat="46.31975" lon="6.84622">
        <ele>1419.04</ele>
        <time>2021-01-19T11:03:50Z</time>
      </trkpt>
      <trkpt lat="46.31975" lon="6.84665">
        <ele>1425.77</ele>
        <time>2021-01-19T11:04:53Z</time>
      </trkpt>
      <trkpt lat="46.32023" lon="6.84687">
        <ele>1434.42</ele>
        <time>2021-01-19T11:06:21Z</time>
      </trkpt>
      <trkpt lat="46.32032" lon="6.84683">
        <ele>1436.35</ele>
        <time>2021-01-19T11:06:38Z</time>
      </trkpt>
      <trkpt lat="46.32057" lon="6.8471">
        <ele>1437.31</ele>
        <time>2021-01-19T11:06:54Z</time>
      </trkpt>
      <trkpt lat="46.32048" lon="6.847">
        <ele>1438.75</ele>
        <time>2021-01-19T11:07:13Z</time>
      </trkpt>
      <trkpt lat="46.32068" lon="6.84684">
        <ele>1443.08</ele>
        <time>2021-01-19T11:07:53Z</time>
      </trkpt>
      <trkpt lat="46.32056" lon="6.84675">
        <ele>1444.04</ele>
        <time>2021-01-19T11:08:49Z</time>
      </trkpt>
      <trkpt lat="46.3207" lon="6.84675">
        <ele>1445.48</ele>
        <time>2021-01-19T11:09:48Z</time>
      </trkpt>
      <trkpt lat="46.32082" lon="6.84684">
        <ele>1445.96</ele>
        <time>2021-01-19T11:10:49Z</time>
      </trkpt>
      <trkpt lat="46.32067" lon="6.84676">
        <ele>1445.96</ele>
        <time>2021-01-19T11:11:15Z</time>
      </trkpt>
      <trkpt lat="46.32125" lon="6.84585">
        <ele>1457.98</ele>
        <time>2021-01-19T11:14:16Z</time>
      </trkpt>
      <trkpt lat="46.32161" lon="6.84576">
        <ele>1461.82</ele>
        <time>2021-01-19T11:15:06Z</time>
      </trkpt>
      <trkpt lat="46.32183" lon="6.84558">
        <ele>1465.67</ele>
        <time>2021-01-19T11:16:16Z</time>
      </trkpt>
      <trkpt lat="46.32201" lon="6.84559">
        <ele>1466.15</ele>
        <time>2021-01-19T11:16:47Z</time>
      </trkpt>
      <trkpt lat="46.3223" lon="6.84596">
        <ele>1465.19</ele>
        <time>2021-01-19T11:17:49Z</time>
      </trkpt>
      <trkpt lat="46.32257" lon="6.84593">
        <ele>1467.59</ele>
        <time>2021-01-19T11:18:45Z</time>
      </trkpt>
      <trkpt lat="46.32279" lon="6.84602">
        <ele>1469.51</ele>
        <time>2021-01-19T11:19:32Z</time>
      </trkpt>
      <trkpt lat="46.32336" lon="6.84581">
        <ele>1472.4</ele>
        <time>2021-01-19T11:22:52Z</time>
      </trkpt>
      <trkpt lat="46.32368" lon="6.84553">
        <ele>1472.88</ele>
        <time>2021-01-19T11:24:10Z</time>
      </trkpt>
      <trkpt lat="46.32375" lon="6.84539">
        <ele>1473.84</ele>
        <time>2021-01-19T11:24:24Z</time>
      </trkpt>
      <trkpt lat="46.32377" lon="6.84516">
        <ele>1474.8</ele>
        <time>2021-01-19T11:24:39Z</time>
      </trkpt>
      <trkpt lat="46.32374" lon="6.8435">
        <ele>1485.37</ele>
        <time>2021-01-19T11:27:19Z</time>
      </trkpt>
      <trkpt lat="46.32394" lon="6.84308">
        <ele>1489.22</ele>
        <time>2021-01-19T11:28:08Z</time>
      </trkpt>
      <trkpt lat="46.32447" lon="6.84233">
        <ele>1497.87</ele>
        <time>2021-01-19T11:29:53Z</time>
      </trkpt>
      <trkpt lat="46.32453" lon="6.84207">
        <ele>1500.27</ele>
        <time>2021-01-19T11:30:24Z</time>
      </trkpt>
      <trkpt lat="46.3245" lon="6.84147">
        <ele>1505.08</ele>
        <time>2021-01-19T11:31:25Z</time>
      </trkpt>
      <trkpt lat="46.32432" lon="6.84093">
        <ele>1509.41</ele>
        <time>2021-01-19T11:32:30Z</time>
      </trkpt>
      <trkpt lat="46.32414" lon="6.84063">
        <ele>1512.29</ele>
        <time>2021-01-19T11:33:09Z</time>
      </trkpt>
      <trkpt lat="46.32397" lon="6.84005">
        <ele>1517.1</ele>
        <time>2021-01-19T11:34:20Z</time>
      </trkpt>
      <trkpt lat="46.32401" lon="6.8397">
        <ele>1519.02</ele>
        <time>2021-01-19T11:34:56Z</time>
      </trkpt>
      <trkpt lat="46.32409" lon="6.8396">
        <ele>1520.46</ele>
        <time>2021-01-19T11:35:15Z</time>
      </trkpt>
      <trkpt lat="46.32427" lon="6.83911">
        <ele>1523.35</ele>
        <time>2021-01-19T11:36:17Z</time>
      </trkpt>
      <trkpt lat="46.32452" lon="6.8378">
        <ele>1525.75</ele>
        <time>2021-01-19T11:38:26Z</time>
      </trkpt>
      <trkpt lat="46.32447" lon="6.83701">
        <ele>1529.59</ele>
        <time>2021-01-19T11:39:48Z</time>
      </trkpt>
      <trkpt lat="46.32436" lon="6.83658">
        <ele>1531.52</ele>
        <time>2021-01-19T11:40:37Z</time>
      </trkpt>
      <trkpt lat="46.32438" lon="6.83623">
        <ele>1533.44</ele>
        <time>2021-01-19T11:41:11Z</time>
      </trkpt>
      <trkpt lat="46.32409" lon="6.83593">
        <ele>1537.29</ele>
        <time>2021-01-19T11:42:04Z</time>
      </trkpt>
      <trkpt lat="46.32405" lon="6.83581">
        <ele>1538.25</ele>
        <time>2021-01-19T11:42:21Z</time>
      </trkpt>
      <trkpt lat="46.32405" lon="6.83558">
        <ele>1538.73</ele>
        <time>2021-01-19T11:42:40Z</time>
      </trkpt>
      <trkpt lat="46.32413" lon="6.83544">
        <ele>1539.21</ele>
        <time>2021-01-19T11:42:55Z</time>
      </trkpt>
      <trkpt lat="46.32409" lon="6.83509">
        <ele>1537.77</ele>
        <time>2021-01-19T11:43:30Z</time>
      </trkpt>
      <trkpt lat="46.32404" lon="6.83494">
        <ele>1537.29</ele>
        <time>2021-01-19T11:43:45Z</time>
      </trkpt>
      <trkpt lat="46.32349" lon="6.83425">
        <ele>1536.32</ele>
        <time>2021-01-19T11:45:16Z</time>
      </trkpt>
      <trkpt lat="46.32323" lon="6.83357">
        <ele>1539.69</ele>
        <time>2021-01-19T11:46:33Z</time>
      </trkpt>
      <trkpt lat="46.32324" lon="6.8328">
        <ele>1538.25</ele>
        <time>2021-01-19T11:47:49Z</time>
      </trkpt>
      <trkpt lat="46.3232" lon="6.83269">
        <ele>1538.25</ele>
        <time>2021-01-19T11:48:03Z</time>
      </trkpt>
      <trkpt lat="46.32335" lon="6.83173">
        <ele>1540.17</ele>
        <time>2021-01-19T11:49:43Z</time>
      </trkpt>
      <trkpt lat="46.32334" lon="6.83106">
        <ele>1541.13</ele>
        <time>2021-01-19T11:50:55Z</time>
      </trkpt>
      <trkpt lat="46.32305" lon="6.83058">
        <ele>1543.53</ele>
        <time>2021-01-19T11:51:57Z</time>
      </trkpt>
      <trkpt lat="46.32279" lon="6.8304">
        <ele>1546.42</ele>
        <time>2021-01-19T11:52:47Z</time>
      </trkpt>
      <trkpt lat="46.32248" lon="6.8303">
        <ele>1549.78</ele>
        <time>2021-01-19T11:53:40Z</time>
      </trkpt>
      <trkpt lat="46.32228" lon="6.83012">
        <ele>1552.67</ele>
        <time>2021-01-19T11:54:23Z</time>
      </trkpt>
      <trkpt lat="46.32235" lon="6.82985">
        <ele>1553.63</ele>
        <time>2021-01-19T11:54:51Z</time>
      </trkpt>
      <trkpt lat="46.32228" lon="6.82946">
        <ele>1555.55</ele>
        <time>2021-01-19T11:55:33Z</time>
      </trkpt>
      <trkpt lat="46.32233" lon="6.82906">
        <ele>1559.88</ele>
        <time>2021-01-19T11:56:20Z</time>
      </trkpt>
      <trkpt lat="46.32251" lon="6.82866">
        <ele>1566.12</ele>
        <time>2021-01-19T11:57:35Z</time>
      </trkpt>
      <trkpt lat="46.32268" lon="6.82845">
        <ele>1570.93</ele>
        <time>2021-01-19T11:58:32Z</time>
      </trkpt>
      <trkpt lat="46.32273" lon="6.82824">
        <ele>1570.93</ele>
        <time>2021-01-19T11:59:00Z</time>
      </trkpt>
      <trkpt lat="46.32269" lon="6.82809">
        <ele>1572.85</ele>
        <time>2021-01-19T11:59:15Z</time>
      </trkpt>
      <trkpt lat="46.32277" lon="6.82736">
        <ele>1574.3</ele>
        <time>2021-01-19T12:00:23Z</time>
      </trkpt>
      <trkpt lat="46.32269" lon="6.82714">
        <ele>1576.7</ele>
        <time>2021-01-19T12:00:49Z</time>
      </trkpt>
      <trkpt lat="46.32265" lon="6.82672">
        <ele>1576.7</ele>
        <time>2021-01-19T12:01:28Z</time>
      </trkpt>
      <trkpt lat="46.32279" lon="6.8263">
        <ele>1576.7</ele>
        <time>2021-01-19T12:02:03Z</time>
      </trkpt>
      <trkpt lat="46.32272" lon="6.82602">
        <ele>1576.7</ele>
        <time>2021-01-19T12:02:31Z</time>
      </trkpt>
      <trkpt lat="46.32259" lon="6.82595">
        <ele>1577.18</ele>
        <time>2021-01-19T12:02:44Z</time>
      </trkpt>
      <trkpt lat="46.32256" lon="6.82581">
        <ele>1578.14</ele>
        <time>2021-01-19T12:03:00Z</time>
      </trkpt>
      <trkpt lat="46.32262" lon="6.82547">
        <ele>1580.06</ele>
        <time>2021-01-19T12:03:43Z</time>
      </trkpt>
      <trkpt lat="46.32258" lon="6.82479">
        <ele>1589.68</ele>
        <time>2021-01-19T12:05:15Z</time>
      </trkpt>
      <trkpt lat="46.32264" lon="6.82453">
        <ele>1592.56</ele>
        <time>2021-01-19T12:05:50Z</time>
      </trkpt>
      <trkpt lat="46.32256" lon="6.82447">
        <ele>1594</ele>
        <time>2021-01-19T12:06:07Z</time>
      </trkpt>
      <trkpt lat="46.32257" lon="6.82434">
        <ele>1595.45</ele>
        <time>2021-01-19T12:06:21Z</time>
      </trkpt>
      <trkpt lat="46.32265" lon="6.82421">
        <ele>1596.89</ele>
        <time>2021-01-19T12:06:39Z</time>
      </trkpt>
      <trkpt lat="46.32274" lon="6.82365">
        <ele>1603.14</ele>
        <time>2021-01-19T12:07:56Z</time>
      </trkpt>
      <trkpt lat="46.32284" lon="6.82351">
        <ele>1603.62</ele>
        <time>2021-01-19T12:08:13Z</time>
      </trkpt>
      <trkpt lat="46.32265" lon="6.82353">
        <ele>1604.1</ele>
        <time>2021-01-19T12:08:57Z</time>
      </trkpt>
      <trkpt lat="46.32276" lon="6.82348">
        <ele>1604.58</ele>
        <time>2021-01-19T12:09:09Z</time>
      </trkpt>
      <trkpt lat="46.32278" lon="6.82323">
        <ele>1605.54</ele>
        <time>2021-01-19T12:09:40Z</time>
      </trkpt>
      <trkpt lat="46.32275" lon="6.82312">
        <ele>1606.98</ele>
        <time>2021-01-19T12:09:54Z</time>
      </trkpt>
      <trkpt lat="46.32279" lon="6.82308">
        <ele>1606.98</ele>
        <time>2021-01-19T12:10:09Z</time>
      </trkpt>
      <trkpt lat="46.3227" lon="6.82269">
        <ele>1611.31</ele>
        <time>2021-01-19T12:10:54Z</time>
      </trkpt>
      <trkpt lat="46.32272" lon="6.82254">
        <ele>1611.79</ele>
        <time>2021-01-19T12:11:11Z</time>
      </trkpt>
      <trkpt lat="46.32236" lon="6.82181">
        <ele>1620.44</ele>
        <time>2021-01-19T12:13:06Z</time>
      </trkpt>
      <trkpt lat="46.32244" lon="6.82178">
        <ele>1622.36</ele>
        <time>2021-01-19T12:13:41Z</time>
      </trkpt>
      <trkpt lat="46.32251" lon="6.82135">
        <ele>1624.77</ele>
        <time>2021-01-19T12:14:29Z</time>
      </trkpt>
      <trkpt lat="46.32231" lon="6.82087">
        <ele>1627.65</ele>
        <time>2021-01-19T12:15:26Z</time>
      </trkpt>
      <trkpt lat="46.32209" lon="6.82055">
        <ele>1628.61</ele>
        <time>2021-01-19T12:16:11Z</time>
      </trkpt>
      <trkpt lat="46.32173" lon="6.8205">
        <ele>1628.13</ele>
        <time>2021-01-19T12:17:00Z</time>
      </trkpt>
      <trkpt lat="46.32173" lon="6.82041">
        <ele>1630.05</ele>
        <time>2021-01-19T12:17:14Z</time>
      </trkpt>
      <trkpt lat="46.32164" lon="6.82042">
        <ele>1632.46</ele>
        <time>2021-01-19T12:17:26Z</time>
      </trkpt>
      <trkpt lat="46.32116" lon="6.81905">
        <ele>1642.07</ele>
        <time>2021-01-19T12:20:17Z</time>
      </trkpt>
      <trkpt lat="46.32124" lon="6.81892">
        <ele>1646.4</ele>
        <time>2021-01-19T12:20:43Z</time>
      </trkpt>
      <trkpt lat="46.32125" lon="6.81843">
        <ele>1653.6</ele>
        <time>2021-01-19T12:21:51Z</time>
      </trkpt>
      <trkpt lat="46.32074" lon="6.81712">
        <ele>1658.89</ele>
        <time>2021-01-19T12:24:14Z</time>
      </trkpt>
      <trkpt lat="46.32027" lon="6.81623">
        <ele>1671.39</ele>
        <time>2021-01-19T12:26:20Z</time>
      </trkpt>
      <trkpt lat="46.32025" lon="6.81593">
        <ele>1676.68</ele>
        <time>2021-01-19T12:27:06Z</time>
      </trkpt>
      <trkpt lat="46.32004" lon="6.81553">
        <ele>1685.33</ele>
        <time>2021-01-19T12:28:21Z</time>
      </trkpt>
      <trkpt lat="46.3202" lon="6.8151">
        <ele>1697.34</ele>
        <time>2021-01-19T12:30:26Z</time>
      </trkpt>
      <trkpt lat="46.32024" lon="6.8152">
        <ele>1699.75</ele>
        <time>2021-01-19T12:30:53Z</time>
      </trkpt>
      <trkpt lat="46.32036" lon="6.81449">
        <ele>1712.73</ele>
        <time>2021-01-19T12:32:44Z</time>
      </trkpt>
      <trkpt lat="46.32039" lon="6.81402">
        <ele>1724.74</ele>
        <time>2021-01-19T12:34:09Z</time>
      </trkpt>
      <trkpt lat="46.3205" lon="6.8141">
        <ele>1727.63</ele>
        <time>2021-01-19T12:34:46Z</time>
      </trkpt>
      <trkpt lat="46.32046" lon="6.81302">
        <ele>1749.26</ele>
        <time>2021-01-19T12:37:37Z</time>
      </trkpt>
      <trkpt lat="46.32059" lon="6.81302">
        <ele>1752.62</ele>
        <time>2021-01-19T12:38:02Z</time>
      </trkpt>
      <trkpt lat="46.32076" lon="6.81269">
        <ele>1761.27</ele>
        <time>2021-01-19T12:39:18Z</time>
      </trkpt>
      <trkpt lat="46.32079" lon="6.81273">
        <ele>1761.75</ele>
        <time>2021-01-19T12:39:59Z</time>
      </trkpt>
      <trkpt lat="46.32066" lon="6.81268">
        <ele>1761.75</ele>
        <time>2021-01-19T12:43:42Z</time>
      </trkpt>
      <trkpt lat="46.32086" lon="6.81265">
        <ele>1764.16</ele>
        <time>2021-01-19T12:45:03Z</time>
      </trkpt>
      <trkpt lat="46.32079" lon="6.81255">
        <ele>1765.12</ele>
        <time>2021-01-19T12:45:55Z</time>
      </trkpt>
      <trkpt lat="46.3208" lon="6.81263">
        <ele>1765.12</ele>
        <time>2021-01-19T12:46:36Z</time>
      </trkpt>
      <trkpt lat="46.32087" lon="6.81262">
        <ele>1765.6</ele>
        <time>2021-01-19T12:47:42Z</time>
      </trkpt>
      <trkpt lat="46.32078" lon="6.8124">
        <ele>1768</ele>
        <time>2021-01-19T12:51:52Z</time>
      </trkpt>
      <trkpt lat="46.32046" lon="6.812">
        <ele>1780.02</ele>
        <time>2021-01-19T12:53:25Z</time>
      </trkpt>
      <trkpt lat="46.32067" lon="6.81181">
        <ele>1785.79</ele>
        <time>2021-01-19T12:54:15Z</time>
      </trkpt>
      <trkpt lat="46.32048" lon="6.81169">
        <ele>1791.07</ele>
        <time>2021-01-19T12:55:01Z</time>
      </trkpt>
      <trkpt lat="46.32049" lon="6.81158">
        <ele>1793.48</ele>
        <time>2021-01-19T12:55:20Z</time>
      </trkpt>
      <trkpt lat="46.32067" lon="6.81141">
        <ele>1798.76</ele>
        <time>2021-01-19T12:56:21Z</time>
      </trkpt>
      <trkpt lat="46.32047" lon="6.81122">
        <ele>1807.42</ele>
        <time>2021-01-19T12:57:27Z</time>
      </trkpt>
      <trkpt lat="46.32033" lon="6.81096">
        <ele>1813.66</ele>
        <time>2021-01-19T12:58:26Z</time>
      </trkpt>
      <trkpt lat="46.3201" lon="6.81083">
        <ele>1820.87</ele>
        <time>2021-01-19T12:59:26Z</time>
      </trkpt>
      <trkpt lat="46.32029" lon="6.81057">
        <ele>1828.08</ele>
        <time>2021-01-19T13:00:31Z</time>
      </trkpt>
      <trkpt lat="46.3204" lon="6.81056">
        <ele>1830.01</ele>
        <time>2021-01-19T13:02:44Z</time>
      </trkpt>
      <trkpt lat="46.3198" lon="6.8103">
        <ele>1848.75</ele>
        <time>2021-01-19T13:06:26Z</time>
      </trkpt>
      <trkpt lat="46.31964" lon="6.81039">
        <ele>1853.08</ele>
        <time>2021-01-19T13:07:13Z</time>
      </trkpt>
      <trkpt lat="46.31963" lon="6.81023">
        <ele>1856.44</ele>
        <time>2021-01-19T13:07:44Z</time>
      </trkpt>
      <trkpt lat="46.31947" lon="6.8105">
        <ele>1865.58</ele>
        <time>2021-01-19T13:09:25Z</time>
      </trkpt>
      <trkpt lat="46.31935" lon="6.81054">
        <ele>1869.9</ele>
        <time>2021-01-19T13:10:27Z</time>
      </trkpt>
      <trkpt lat="46.31948" lon="6.81014">
        <ele>1869.9</ele>
        <time>2021-01-19T13:11:39Z</time>
      </trkpt>
      <trkpt lat="46.31948" lon="6.80988">
        <ele>1873.27</ele>
        <time>2021-01-19T13:12:08Z</time>
      </trkpt>
      <trkpt lat="46.31954" lon="6.80969">
        <ele>1877.59</ele>
        <time>2021-01-19T13:12:39Z</time>
      </trkpt>
      <trkpt lat="46.31958" lon="6.80966">
        <ele>1880.96</ele>
        <time>2021-01-19T13:12:53Z</time>
      </trkpt>
      <trkpt lat="46.3197" lon="6.80975">
        <ele>1885.28</ele>
        <time>2021-01-19T13:13:31Z</time>
      </trkpt>
      <trkpt lat="46.31975" lon="6.80954">
        <ele>1891.05</ele>
        <time>2021-01-19T13:14:16Z</time>
      </trkpt>
      <trkpt lat="46.31988" lon="6.80956">
        <ele>1893.93</ele>
        <time>2021-01-19T13:14:46Z</time>
      </trkpt>
      <trkpt lat="46.31989" lon="6.80922">
        <ele>1903.07</ele>
        <time>2021-01-19T13:15:45Z</time>
      </trkpt>
      <trkpt lat="46.32017" lon="6.80935">
        <ele>1911.72</ele>
        <time>2021-01-19T13:17:08Z</time>
      </trkpt>
      <trkpt lat="46.32017" lon="6.80884">
        <ele>1924.7</ele>
        <time>2021-01-19T13:18:35Z</time>
      </trkpt>
      <trkpt lat="46.32008" lon="6.80858">
        <ele>1930.46</ele>
        <time>2021-01-19T13:19:45Z</time>
      </trkpt>
      <trkpt lat="46.32041" lon="6.80865">
        <ele>1935.75</ele>
        <time>2021-01-19T13:21:01Z</time>
      </trkpt>
      <trkpt lat="46.32082" lon="6.80855">
        <ele>1950.17</ele>
        <time>2021-01-19T13:22:46Z</time>
      </trkpt>
      <trkpt lat="46.32078" lon="6.80812">
        <ele>1957.86</ele>
        <time>2021-01-19T13:23:51Z</time>
      </trkpt>
      <trkpt lat="46.32143" lon="6.80792">
        <ele>1976.13</ele>
        <time>2021-01-19T13:35:37Z</time>
      </trkpt>
      <trkpt lat="46.32132" lon="6.80798">
        <ele>1974.69</ele>
        <time>2021-01-19T13:38:46Z</time>
      </trkpt>
      <trkpt lat="46.32142" lon="6.80791">
        <ele>1977.09</ele>
        <time>2021-01-19T13:41:44Z</time>
      </trkpt>
      <trkpt lat="46.32138" lon="6.80789">
        <ele>1977.57</ele>
        <time>2021-01-19T13:44:02Z</time>
      </trkpt>
      <trkpt lat="46.32142" lon="6.80793">
        <ele>1977.09</ele>
        <time>2021-01-19T13:46:03Z</time>
      </trkpt>
      <trkpt lat="46.32139" lon="6.80789">
        <ele>1977.09</ele>
        <time>2021-01-19T13:50:11Z</time>
      </trkpt>
      <trkpt lat="46.3214" lon="6.80795">
        <ele>1977.09</ele>
        <time>2021-01-19T13:50:42Z</time>
      </trkpt>
      <trkpt lat="46.32138" lon="6.80791">
        <ele>1977.57</ele>
        <time>2021-01-19T13:51:09Z</time>
      </trkpt>
      <trkpt lat="46.32122" lon="6.80805">
        <ele>1967.96</ele>
        <time>2021-01-19T13:59:25Z</time>
      </trkpt>
      <trkpt lat="46.32084" lon="6.80799">
        <ele>1961.71</ele>
        <time>2021-01-19T13:59:33Z</time>
      </trkpt>
      <trkpt lat="46.32079" lon="6.80805">
        <ele>1960.75</ele>
        <time>2021-01-19T13:59:35Z</time>
      </trkpt>
      <trkpt lat="46.32082" lon="6.80823">
        <ele>1956.42</ele>
        <time>2021-01-19T13:59:37Z</time>
      </trkpt>
      <trkpt lat="46.32071" lon="6.8085">
        <ele>1947.77</ele>
        <time>2021-01-19T13:59:44Z</time>
      </trkpt>
      <trkpt lat="46.32061" lon="6.80842">
        <ele>1946.81</ele>
        <time>2021-01-19T14:00:10Z</time>
      </trkpt>
      <trkpt lat="46.32064" lon="6.80844">
        <ele>1947.77</ele>
        <time>2021-01-19T14:00:22Z</time>
      </trkpt>
      <trkpt lat="46.32039" lon="6.80851">
        <ele>1940.08</ele>
        <time>2021-01-19T14:00:33Z</time>
      </trkpt>
      <trkpt lat="46.32043" lon="6.80874">
        <ele>1936.23</ele>
        <time>2021-01-19T14:00:37Z</time>
      </trkpt>
      <trkpt lat="46.32037" lon="6.80889">
        <ele>1927.58</ele>
        <time>2021-01-19T14:00:41Z</time>
      </trkpt>
      <trkpt lat="46.32011" lon="6.80905">
        <ele>1914.12</ele>
        <time>2021-01-19T14:00:48Z</time>
      </trkpt>
      <trkpt lat="46.31994" lon="6.80927">
        <ele>1901.63</ele>
        <time>2021-01-19T14:00:53Z</time>
      </trkpt>
      <trkpt lat="46.31983" lon="6.80928">
        <ele>1897.3</ele>
        <time>2021-01-19T14:01:00Z</time>
      </trkpt>
      <trkpt lat="46.31983" lon="6.80955">
        <ele>1894.42</ele>
        <time>2021-01-19T14:01:31Z</time>
      </trkpt>
      <trkpt lat="46.31974" lon="6.80961">
        <ele>1889.13</ele>
        <time>2021-01-19T14:01:34Z</time>
      </trkpt>
      <trkpt lat="46.31971" lon="6.80976">
        <ele>1886.72</ele>
        <time>2021-01-19T14:01:48Z</time>
      </trkpt>
      <trkpt lat="46.31964" lon="6.80979">
        <ele>1880.96</ele>
        <time>2021-01-19T14:02:05Z</time>
      </trkpt>
      <trkpt lat="46.31955" lon="6.80967">
        <ele>1876.63</ele>
        <time>2021-01-19T14:02:11Z</time>
      </trkpt>
      <trkpt lat="46.31947" lon="6.80969">
        <ele>1873.75</ele>
        <time>2021-01-19T14:02:14Z</time>
      </trkpt>
      <trkpt lat="46.31939" lon="6.81038">
        <ele>1865.58</ele>
        <time>2021-01-19T14:02:25Z</time>
      </trkpt>
      <trkpt lat="46.31933" lon="6.8102">
        <ele>1862.21</ele>
        <time>2021-01-19T14:03:06Z</time>
      </trkpt>
      <trkpt lat="46.31912" lon="6.81015">
        <ele>1849.23</ele>
        <time>2021-01-19T14:03:34Z</time>
      </trkpt>
      <trkpt lat="46.31906" lon="6.81021">
        <ele>1843.47</ele>
        <time>2021-01-19T14:03:43Z</time>
      </trkpt>
      <trkpt lat="46.31898" lon="6.81001">
        <ele>1839.14</ele>
        <time>2021-01-19T14:03:50Z</time>
      </trkpt>
      <trkpt lat="46.31878" lon="6.81039">
        <ele>1828.56</ele>
        <time>2021-01-19T14:03:59Z</time>
      </trkpt>
      <trkpt lat="46.31863" lon="6.81034">
        <ele>1816.07</ele>
        <time>2021-01-19T14:04:08Z</time>
      </trkpt>
      <trkpt lat="46.31864" lon="6.81019">
        <ele>1818.47</ele>
        <time>2021-01-19T14:06:29Z</time>
      </trkpt>
      <trkpt lat="46.31852" lon="6.81019">
        <ele>1811.26</ele>
        <time>2021-01-19T14:06:36Z</time>
      </trkpt>
      <trkpt lat="46.31858" lon="6.81034">
        <ele>1812.22</ele>
        <time>2021-01-19T14:07:15Z</time>
      </trkpt>
      <trkpt lat="46.31852" lon="6.81023">
        <ele>1805.97</ele>
        <time>2021-01-19T14:07:18Z</time>
      </trkpt>
      <trkpt lat="46.31842" lon="6.81019">
        <ele>1803.09</ele>
        <time>2021-01-19T14:07:20Z</time>
      </trkpt>
      <trkpt lat="46.31816" lon="6.81043">
        <ele>1798.76</ele>
        <time>2021-01-19T14:07:28Z</time>
      </trkpt>
      <trkpt lat="46.31722" lon="6.80964">
        <ele>1748.29</ele>
        <time>2021-01-19T14:08:23Z</time>
      </trkpt>
      <trkpt lat="46.31725" lon="6.80965">
        <ele>1749.26</ele>
        <time>2021-01-19T14:08:57Z</time>
      </trkpt>
      <trkpt lat="46.31726" lon="6.80946">
        <ele>1746.85</ele>
        <time>2021-01-19T14:11:10Z</time>
      </trkpt>
      <trkpt lat="46.31719" lon="6.80946">
        <ele>1744.45</ele>
        <time>2021-01-19T14:11:15Z</time>
      </trkpt>
      <trkpt lat="46.31703" lon="6.8096">
        <ele>1742.53</ele>
        <time>2021-01-19T14:11:30Z</time>
      </trkpt>
      <trkpt lat="46.31665" lon="6.81019">
        <ele>1733.88</ele>
        <time>2021-01-19T14:12:06Z</time>
      </trkpt>
      <trkpt lat="46.31637" lon="6.81024">
        <ele>1709.36</ele>
        <time>2021-01-19T14:12:17Z</time>
      </trkpt>
      <trkpt lat="46.31624" lon="6.81048">
        <ele>1702.15</ele>
        <time>2021-01-19T14:12:22Z</time>
      </trkpt>
      <trkpt lat="46.31605" lon="6.81041">
        <ele>1694.46</ele>
        <time>2021-01-19T14:12:28Z</time>
      </trkpt>
      <trkpt lat="46.31517" lon="6.81052">
        <ele>1673.79</ele>
        <time>2021-01-19T14:12:44Z</time>
      </trkpt>
      <trkpt lat="46.31507" lon="6.81048">
        <ele>1673.31</ele>
        <time>2021-01-19T14:12:47Z</time>
      </trkpt>
      <trkpt lat="46.31496" lon="6.81029">
        <ele>1673.79</ele>
        <time>2021-01-19T14:13:02Z</time>
      </trkpt>
      <trkpt lat="46.31502" lon="6.81037">
        <ele>1673.79</ele>
        <time>2021-01-19T14:13:33Z</time>
      </trkpt>
      <trkpt lat="46.31486" lon="6.81047">
        <ele>1670.91</ele>
        <time>2021-01-19T14:13:41Z</time>
      </trkpt>
      <trkpt lat="46.31442" lon="6.81101">
        <ele>1663.22</ele>
        <time>2021-01-19T14:14:08Z</time>
      </trkpt>
      <trkpt lat="46.31351" lon="6.8109">
        <ele>1664.66</ele>
        <time>2021-01-19T14:16:43Z</time>
      </trkpt>
      <trkpt lat="46.31332" lon="6.81081">
        <ele>1665.14</ele>
        <time>2021-01-19T14:17:19Z</time>
      </trkpt>
      <trkpt lat="46.31318" lon="6.81087">
        <ele>1661.3</ele>
        <time>2021-01-19T14:17:28Z</time>
      </trkpt>
      <trkpt lat="46.31289" lon="6.81122">
        <ele>1660.33</ele>
        <time>2021-01-19T14:18:18Z</time>
      </trkpt>
      <trkpt lat="46.31265" lon="6.8113">
        <ele>1657.45</ele>
        <time>2021-01-19T14:19:03Z</time>
      </trkpt>
      <trkpt lat="46.3125" lon="6.81148">
        <ele>1652.64</ele>
        <time>2021-01-19T14:20:44Z</time>
      </trkpt>
      <trkpt lat="46.31221" lon="6.81145">
        <ele>1644.95</ele>
        <time>2021-01-19T14:20:51Z</time>
      </trkpt>
      <trkpt lat="46.31189" lon="6.8113">
        <ele>1638.7</ele>
        <time>2021-01-19T14:20:58Z</time>
      </trkpt>
      <trkpt lat="46.3116" lon="6.81089">
        <ele>1630.53</ele>
        <time>2021-01-19T14:21:19Z</time>
      </trkpt>
      <trkpt lat="46.31135" lon="6.81065">
        <ele>1621.88</ele>
        <time>2021-01-19T14:21:25Z</time>
      </trkpt>
      <trkpt lat="46.311" lon="6.81002">
        <ele>1612.27</ele>
        <time>2021-01-19T14:21:34Z</time>
      </trkpt>
      <trkpt lat="46.31064" lon="6.80954">
        <ele>1605.54</ele>
        <time>2021-01-19T14:21:45Z</time>
      </trkpt>
      <trkpt lat="46.31044" lon="6.80945">
        <ele>1603.14</ele>
        <time>2021-01-19T14:21:51Z</time>
      </trkpt>
      <trkpt lat="46.31049" lon="6.80946">
        <ele>1603.14</ele>
        <time>2021-01-19T14:22:33Z</time>
      </trkpt>
      <trkpt lat="46.3104" lon="6.80936">
        <ele>1598.33</ele>
        <time>2021-01-19T14:23:02Z</time>
      </trkpt>
      <trkpt lat="46.31027" lon="6.80877">
        <ele>1574.78</ele>
        <time>2021-01-19T14:23:13Z</time>
      </trkpt>
      <trkpt lat="46.31" lon="6.80875">
        <ele>1568.53</ele>
        <time>2021-01-19T14:23:20Z</time>
      </trkpt>
      <trkpt lat="46.30997" lon="6.80832">
        <ele>1552.67</ele>
        <time>2021-01-19T14:23:30Z</time>
      </trkpt>
      <trkpt lat="46.3093" lon="6.8077">
        <ele>1532</ele>
        <time>2021-01-19T14:23:39Z</time>
      </trkpt>
      <trkpt lat="46.30891" lon="6.80761">
        <ele>1526.71</ele>
        <time>2021-01-19T14:23:49Z</time>
      </trkpt>
      <trkpt lat="46.30836" lon="6.80664">
        <ele>1512.29</ele>
        <time>2021-01-19T14:24:27Z</time>
      </trkpt>
      <trkpt lat="46.30769" lon="6.80694">
        <ele>1502.68</ele>
        <time>2021-01-19T14:25:16Z</time>
      </trkpt>
      <trkpt lat="46.30743" lon="6.80698">
        <ele>1499.79</ele>
        <time>2021-01-19T14:25:24Z</time>
      </trkpt>
      <trkpt lat="46.30668" lon="6.80657">
        <ele>1499.31</ele>
        <time>2021-01-19T14:26:13Z</time>
      </trkpt>
      <trkpt lat="46.30643" lon="6.80658">
        <ele>1499.31</ele>
        <time>2021-01-19T14:27:02Z</time>
      </trkpt>
      <trkpt lat="46.30621" lon="6.8065">
        <ele>1498.35</ele>
        <time>2021-01-19T14:27:33Z</time>
      </trkpt>
      <trkpt lat="46.30576" lon="6.80609">
        <ele>1488.74</ele>
        <time>2021-01-19T14:27:49Z</time>
      </trkpt>
      <trkpt lat="46.3054" lon="6.80593">
        <ele>1484.41</ele>
        <time>2021-01-19T14:27:55Z</time>
      </trkpt>
      <trkpt lat="46.30522" lon="6.80559">
        <ele>1487.3</ele>
        <time>2021-01-19T14:28:41Z</time>
      </trkpt>
      <trkpt lat="46.30504" lon="6.80543">
        <ele>1487.3</ele>
        <time>2021-01-19T14:29:30Z</time>
      </trkpt>
      <trkpt lat="46.30444" lon="6.80505">
        <ele>1481.53</ele>
        <time>2021-01-19T14:30:36Z</time>
      </trkpt>
      <trkpt lat="46.30421" lon="6.8048">
        <ele>1475.76</ele>
        <time>2021-01-19T14:30:45Z</time>
      </trkpt>
      <trkpt lat="46.30388" lon="6.80428">
        <ele>1472.88</ele>
        <time>2021-01-19T14:30:58Z</time>
      </trkpt>
      <trkpt lat="46.30349" lon="6.80388">
        <ele>1466.63</ele>
        <time>2021-01-19T14:31:12Z</time>
      </trkpt>
      <trkpt lat="46.30261" lon="6.80344">
        <ele>1453.65</ele>
        <time>2021-01-19T14:31:31Z</time>
      </trkpt>
      <trkpt lat="46.30226" lon="6.80293">
        <ele>1442.11</ele>
        <time>2021-01-19T14:31:39Z</time>
      </trkpt>
      <trkpt lat="46.30204" lon="6.80276">
        <ele>1438.27</ele>
        <time>2021-01-19T14:31:43Z</time>
      </trkpt>
      <trkpt lat="46.30176" lon="6.80263">
        <ele>1435.87</ele>
        <time>2021-01-19T14:31:52Z</time>
      </trkpt>
      <trkpt lat="46.30136" lon="6.80263">
        <ele>1432.98</ele>
        <time>2021-01-19T14:32:07Z</time>
      </trkpt>
      <trkpt lat="46.30082" lon="6.80285">
        <ele>1428.18</ele>
        <time>2021-01-19T14:32:23Z</time>
      </trkpt>
      <trkpt lat="46.30013" lon="6.80345">
        <ele>1418.08</ele>
        <time>2021-01-19T14:32:49Z</time>
      </trkpt>
      <trkpt lat="46.2999" lon="6.80401">
        <ele>1419.52</ele>
        <time>2021-01-19T14:33:15Z</time>
      </trkpt>
      <trkpt lat="46.29957" lon="6.80427">
        <ele>1419.52</ele>
        <time>2021-01-19T14:33:51Z</time>
      </trkpt>
      <trkpt lat="46.29937" lon="6.80452">
        <ele>1420</ele>
        <time>2021-01-19T14:35:31Z</time>
      </trkpt>
      <trkpt lat="46.2994" lon="6.80454">
        <ele>1420</ele>
        <time>2021-01-19T14:35:48Z</time>
      </trkpt>
      <trkpt lat="46.29945" lon="6.80443">
        <ele>1420</ele>
        <time>2021-01-19T14:36:58Z</time>
      </trkpt>
      <trkpt lat="46.29895" lon="6.80536">
        <ele>1423.85</ele>
        <time>2021-01-19T14:39:28Z</time>
      </trkpt>
      <trkpt lat="46.29842" lon="6.80676">
        <ele>1417.12</ele>
        <time>2021-01-19T14:40:54Z</time>
      </trkpt>
      <trkpt lat="46.29831" lon="6.80772">
        <ele>1418.08</ele>
        <time>2021-01-19T14:42:35Z</time>
      </trkpt>
      <trkpt lat="46.29837" lon="6.8079">
        <ele>1415.2</ele>
        <time>2021-01-19T14:42:50Z</time>
      </trkpt>
      <trkpt lat="46.29868" lon="6.80819">
        <ele>1406.07</ele>
        <time>2021-01-19T14:43:00Z</time>
      </trkpt>
      <trkpt lat="46.29892" lon="6.80919">
        <ele>1401.26</ele>
        <time>2021-01-19T14:43:13Z</time>
      </trkpt>
      <trkpt lat="46.29882" lon="6.8098">
        <ele>1401.26</ele>
        <time>2021-01-19T14:43:45Z</time>
      </trkpt>
      <trkpt lat="46.29883" lon="6.81014">
        <ele>1394.05</ele>
        <time>2021-01-19T14:43:52Z</time>
      </trkpt>
      <trkpt lat="46.29876" lon="6.81055">
        <ele>1391.65</ele>
        <time>2021-01-19T14:44:04Z</time>
      </trkpt>
      <trkpt lat="46.29885" lon="6.81052">
        <ele>1392.13</ele>
        <time>2021-01-19T14:44:24Z</time>
      </trkpt>
      <trkpt lat="46.29894" lon="6.81042">
        <ele>1392.13</ele>
        <time>2021-01-19T14:44:39Z</time>
      </trkpt>
      <trkpt lat="46.29879" lon="6.81044">
        <ele>1391.17</ele>
        <time>2021-01-19T14:44:50Z</time>
      </trkpt>
      <trkpt lat="46.29871" lon="6.81038">
        <ele>1389.72</ele>
        <time>2021-01-19T14:45:02Z</time>
      </trkpt>
      <trkpt lat="46.29846" lon="6.80957">
        <ele>1377.23</ele>
        <time>2021-01-19T14:45:21Z</time>
      </trkpt>
      <trkpt lat="46.29825" lon="6.8092">
        <ele>1373.38</ele>
        <time>2021-01-19T14:45:26Z</time>
      </trkpt>
      <trkpt lat="46.29816" lon="6.80891">
        <ele>1369.54</ele>
        <time>2021-01-19T14:45:30Z</time>
      </trkpt>
      <trkpt lat="46.29754" lon="6.8082">
        <ele>1360.88</ele>
        <time>2021-01-19T14:45:44Z</time>
      </trkpt>
      <trkpt lat="46.29738" lon="6.8078">
        <ele>1357.04</ele>
        <time>2021-01-19T14:45:49Z</time>
      </trkpt>
      <trkpt lat="46.29709" lon="6.80736">
        <ele>1353.19</ele>
        <time>2021-01-19T14:46:01Z</time>
      </trkpt>
      <trkpt lat="46.29749" lon="6.80851">
        <ele>1348.87</ele>
        <time>2021-01-19T14:46:06Z</time>
      </trkpt>
      <trkpt lat="46.2977" lon="6.80883">
        <ele>1344.54</ele>
        <time>2021-01-19T14:46:14Z</time>
      </trkpt>
      <trkpt lat="46.29763" lon="6.80975">
        <ele>1338.77</ele>
        <time>2021-01-19T14:46:25Z</time>
      </trkpt>
      <trkpt lat="46.29768" lon="6.81014">
        <ele>1336.37</ele>
        <time>2021-01-19T14:46:31Z</time>
      </trkpt>
      <trkpt lat="46.29753" lon="6.81036">
        <ele>1333.49</ele>
        <time>2021-01-19T14:46:35Z</time>
      </trkpt>
      <trkpt lat="46.29732" lon="6.8096">
        <ele>1327.72</ele>
        <time>2021-01-19T14:46:46Z</time>
      </trkpt>
      <trkpt lat="46.29653" lon="6.80832">
        <ele>1311.38</ele>
        <time>2021-01-19T14:47:07Z</time>
      </trkpt>
      <trkpt lat="46.29647" lon="6.80789">
        <ele>1308.49</ele>
        <time>2021-01-19T14:47:13Z</time>
      </trkpt>
      <trkpt lat="46.29679" lon="6.8072">
        <ele>1301.28</ele>
        <time>2021-01-19T14:47:26Z</time>
      </trkpt>
      <trkpt lat="46.29693" lon="6.80667">
        <ele>1297.92</ele>
        <time>2021-01-19T14:47:32Z</time>
      </trkpt>
      <trkpt lat="46.29715" lon="6.80617">
        <ele>1293.59</ele>
        <time>2021-01-19T14:47:39Z</time>
      </trkpt>
      <trkpt lat="46.29739" lon="6.80544">
        <ele>1286.38</ele>
        <time>2021-01-19T14:47:48Z</time>
      </trkpt>
      <trkpt lat="46.29756" lon="6.80468">
        <ele>1279.17</ele>
        <time>2021-01-19T14:47:57Z</time>
      </trkpt>
      <trkpt lat="46.29776" lon="6.80336">
        <ele>1268.12</ele>
        <time>2021-01-19T14:48:14Z</time>
      </trkpt>
      <trkpt lat="46.29783" lon="6.80303">
        <ele>1268.12</ele>
        <time>2021-01-19T14:48:23Z</time>
      </trkpt>
      <trkpt lat="46.29788" lon="6.80305">
        <ele>1267.16</ele>
        <time>2021-01-19T14:48:48Z</time>
      </trkpt>
      <trkpt lat="46.29776" lon="6.80295">
        <ele>1267.16</ele>
        <time>2021-01-19T14:49:36Z</time>
      </trkpt>
      <trkpt lat="46.29778" lon="6.80299">
        <ele>1268.6</ele>
        <time>2021-01-19T14:49:51Z</time>
      </trkpt>
      <trkpt lat="46.29773" lon="6.80292">
        <ele>1268.6</ele>
        <time>2021-01-19T14:50:16Z</time>
      </trkpt>
      <trkpt lat="46.29776" lon="6.80286">
        <ele>1269.08</ele>
        <time>2021-01-19T14:51:10Z</time>
      </trkpt>
      <trkpt lat="46.29775" lon="6.803">
        <ele>1269.08</ele>
        <time>2021-01-19T14:51:39Z</time>
      </trkpt>
      <trkpt lat="46.29772" lon="6.80298">
        <ele>1269.56</ele>
        <time>2021-01-19T14:52:12Z</time>
      </trkpt>
      <trkpt lat="46.29771" lon="6.80289">
        <ele>1270.04</ele>
        <time>2021-01-19T14:52:37Z</time>
      </trkpt>
      <trkpt lat="46.29778" lon="6.80283">
        <ele>1269.56</ele>
        <time>2021-01-19T14:52:56Z</time>
      </trkpt>
      <trkpt lat="46.29771" lon="6.80294">
        <ele>1270.04</ele>
        <time>2021-01-19T14:53:33Z</time>
      </trkpt>
      <trkpt lat="46.29781" lon="6.80281">
        <ele>1271</ele>
        <time>2021-01-19T14:54:23Z</time>
      </trkpt>
      <trkpt lat="46.29788" lon="6.8028">
        <ele>1271</ele>
        <time>2021-01-19T14:54:44Z</time>
      </trkpt>
      <trkpt lat="46.29782" lon="6.8029">
        <ele>1271.48</ele>
        <time>2021-01-19T14:55:46Z</time>
      </trkpt>
      <trkpt lat="46.29793" lon="6.80292">
        <ele>1271.96</ele>
        <time>2021-01-19T14:56:07Z</time>
      </trkpt>
      <trkpt lat="46.29785" lon="6.80296">
        <ele>1271.96</ele>
        <time>2021-01-19T14:56:29Z</time>
      </trkpt>
      <trkpt lat="46.29792" lon="6.8029">
        <ele>1272.92</ele>
        <time>2021-01-19T14:57:11Z</time>
      </trkpt>
      <trkpt lat="46.29775" lon="6.8029">
        <ele>1272.92</ele>
        <time>2021-01-19T14:57:30Z</time>
      </trkpt>
      <trkpt lat="46.29785" lon="6.8029">
        <ele>1272.92</ele>
        <time>2021-01-19T14:58:01Z</time>
      </trkpt>
      <trkpt lat="46.29785" lon="6.80284">
        <ele>1272.92</ele>
        <time>2021-01-19T14:58:23Z</time>
      </trkpt>
      <trkpt lat="46.29775" lon="6.80288">
        <ele>1273.4</ele>
        <time>2021-01-19T14:58:48Z</time>
      </trkpt>
      <trkpt lat="46.29779" lon="6.80282">
        <ele>1273.4</ele>
        <time>2021-01-19T14:59:05Z</time>
      </trkpt>
      <trkpt lat="46.29781" lon="6.80301">
        <ele>1273.4</ele>
        <time>2021-01-19T14:59:32Z</time>
      </trkpt>
      <trkpt lat="46.29789" lon="6.80293">
        <ele>1273.88</ele>
        <time>2021-01-19T14:59:50Z</time>
      </trkpt>
      <trkpt lat="46.2978" lon="6.80285">
        <ele>1275.33</ele>
        <time>2021-01-19T15:00:55Z</time>
      </trkpt>
    </trkseg>
  </trk>
</gpx>